sensor_id;sensor_type;location;lat;lon;timestamp;P1;durP1;ratioP1;P2;durP2;ratioP2
727;SDS011;347;48.780;9.158;2023-04-04T00:01:23;7.97;;;7.53;;
727;SDS011;347;48.780;9.158;2023-04-04T00:03:49;8.00;;;7.50;;
727;SDS011;347;48.780;9.158;2023-04-04T00:06:18;7.70;;;7.40;;
727;SDS011;347;48.780;9.158;2023-04-04T00:08:45;7.43;;;7.10;;
727;SDS011;347;48.780;9.158;2023-04-04T00:11:11;7.50;;;7.10;;
727;SDS011;347;48.780;9.158;2023-04-04T00:13:37;7.77;;;7.20;;
727;SDS011;347;48.780;9.158;2023-04-04T00:16:03;8.03;;;7.47;;
727;SDS011;347;48.780;9.158;2023-04-04T00:18:30;7.63;;;7.23;;
727;SDS011;347;48.780;9.158;2023-04-04T00:20:56;7.63;;;7.30;;
727;SDS011;347;48.780;9.158;2023-04-04T00:23:22;6.90;;;6.60;;
727;SDS011;347;48.780;9.158;2023-04-04T00:25:48;7.37;;;7.07;;
727;SDS011;347;48.780;9.158;2023-04-04T00:28:15;7.43;;;7.03;;
727;SDS011;347;48.780;9.158;2023-04-04T00:30:41;7.73;;;7.23;;
727;SDS011;347;48.780;9.158;2023-04-04T00:33:07;7.53;;;7.23;;
727;SDS011;347;48.780;9.158;2023-04-04T00:35:32;7.47;;;7.07;;
727;SDS011;347;48.780;9.158;2023-04-04T00:37:58;7.40;;;7.10;;
727;SDS011;347;48.780;9.158;2023-04-04T00:40:24;7.63;;;7.33;;
727;SDS011;347;48.780;9.158;2023-04-04T00:42:50;8.17;;;7.77;;
727;SDS011;347;48.780;9.158;2023-04-04T00:45:17;8.10;;;7.70;;
727;SDS011;347;48.780;9.158;2023-04-04T00:47:43;7.90;;;7.60;;
727;SDS011;347;48.780;9.158;2023-04-04T00:50:09;8.43;;;8.03;;
727;SDS011;347;48.780;9.158;2023-04-04T00:52:35;8.33;;;7.93;;
727;SDS011;347;48.780;9.158;2023-04-04T00:55:01;7.30;;;7.00;;
727;SDS011;347;48.780;9.158;2023-04-04T00:57:29;8.00;;;7.60;;
727;SDS011;347;48.780;9.158;2023-04-04T00:59:56;8.67;;;7.83;;
727;SDS011;347;48.780;9.158;2023-04-04T01:02:23;7.90;;;7.50;;
727;SDS011;347;48.780;9.158;2023-04-04T01:04:50;7.90;;;7.60;;
727;SDS011;347;48.780;9.158;2023-04-04T01:07:16;8.53;;;8.23;;
727;SDS011;347;48.780;9.158;2023-04-04T01:09:43;7.83;;;7.40;;
727;SDS011;347;48.780;9.158;2023-04-04T01:12:08;8.57;;;8.07;;
727;SDS011;347;48.780;9.158;2023-04-04T01:14:35;7.67;;;7.33;;
727;SDS011;347;48.780;9.158;2023-04-04T01:17:00;7.40;;;7.10;;
727;SDS011;347;48.780;9.158;2023-04-04T01:19:37;7.80;;;7.40;;
727;SDS011;347;48.780;9.158;2023-04-04T01:22:17;8.60;;;8.20;;
727;SDS011;347;48.780;9.158;2023-04-04T01:24:44;7.93;;;7.60;;
727;SDS011;347;48.780;9.158;2023-04-04T01:27:11;8.33;;;7.93;;
727;SDS011;347;48.780;9.158;2023-04-04T01:29:37;7.73;;;7.43;;
727;SDS011;347;48.780;9.158;2023-04-04T01:32:05;7.63;;;7.33;;
727;SDS011;347;48.780;9.158;2023-04-04T01:40:32;7.70;;;7.30;;
727;SDS011;347;48.780;9.158;2023-04-04T01:42:59;7.70;;;7.40;;
727;SDS011;347;48.780;9.158;2023-04-04T01:45:25;8.00;;;7.70;;
727;SDS011;347;48.780;9.158;2023-04-04T01:47:52;8.67;;;8.10;;
727;SDS011;347;48.780;9.158;2023-04-04T01:50:17;7.93;;;7.53;;
727;SDS011;347;48.780;9.158;2023-04-04T01:52:43;8.43;;;7.93;;
727;SDS011;347;48.780;9.158;2023-04-04T01:55:09;8.40;;;8.00;;
727;SDS011;347;48.780;9.158;2023-04-04T01:57:34;8.37;;;7.97;;
727;SDS011;347;48.780;9.158;2023-04-04T02:00:00;8.30;;;7.90;;
727;SDS011;347;48.780;9.158;2023-04-04T02:02:25;8.47;;;8.00;;
727;SDS011;347;48.780;9.158;2023-04-04T02:04:51;7.70;;;7.40;;
727;SDS011;347;48.780;9.158;2023-04-04T02:07:17;9.00;;;8.50;;
727;SDS011;347;48.780;9.158;2023-04-04T02:09:43;8.63;;;8.03;;
727;SDS011;347;48.780;9.158;2023-04-04T02:12:09;8.67;;;8.27;;
727;SDS011;347;48.780;9.158;2023-04-04T02:14:34;7.50;;;7.20;;
727;SDS011;347;48.780;9.158;2023-04-04T02:17:00;8.50;;;8.10;;
727;SDS011;347;48.780;9.158;2023-04-04T02:19:25;8.00;;;7.60;;
727;SDS011;347;48.780;9.158;2023-04-04T02:21:51;8.27;;;7.97;;
727;SDS011;347;48.780;9.158;2023-04-04T02:24:17;7.60;;;7.20;;
727;SDS011;347;48.780;9.158;2023-04-04T02:26:42;7.93;;;7.53;;
727;SDS011;347;48.780;9.158;2023-04-04T02:29:08;8.20;;;7.90;;
727;SDS011;347;48.780;9.158;2023-04-04T02:31:33;8.30;;;7.80;;
727;SDS011;347;48.780;9.158;2023-04-04T02:33:59;8.43;;;8.03;;
727;SDS011;347;48.780;9.158;2023-04-04T02:36:25;8.00;;;7.60;;
727;SDS011;347;48.780;9.158;2023-04-04T02:38:51;7.97;;;7.57;;
727;SDS011;347;48.780;9.158;2023-04-04T02:41:17;7.57;;;7.10;;
727;SDS011;347;48.780;9.158;2023-04-04T02:43:42;7.60;;;7.20;;
727;SDS011;347;48.780;9.158;2023-04-04T02:46:08;8.20;;;7.80;;
727;SDS011;347;48.780;9.158;2023-04-04T02:48:34;7.80;;;7.40;;
727;SDS011;347;48.780;9.158;2023-04-04T02:51:00;8.07;;;7.67;;
727;SDS011;347;48.780;9.158;2023-04-04T02:53:26;9.00;;;8.40;;
727;SDS011;347;48.780;9.158;2023-04-04T02:55:52;8.97;;;8.23;;
727;SDS011;347;48.780;9.158;2023-04-04T02:58:17;8.57;;;8.20;;
727;SDS011;347;48.780;9.158;2023-04-04T03:00:43;8.10;;;7.70;;
727;SDS011;347;48.780;9.158;2023-04-04T03:03:11;8.87;;;8.47;;
727;SDS011;347;48.780;9.158;2023-04-04T03:05:36;8.67;;;8.27;;
727;SDS011;347;48.780;9.158;2023-04-04T03:08:02;8.20;;;7.80;;
727;SDS011;347;48.780;9.158;2023-04-04T03:10:28;8.77;;;8.40;;
727;SDS011;347;48.780;9.158;2023-04-04T03:12:54;8.87;;;8.47;;
727;SDS011;347;48.780;9.158;2023-04-04T03:15:20;8.80;;;8.30;;
727;SDS011;347;48.780;9.158;2023-04-04T03:17:46;8.70;;;8.30;;
727;SDS011;347;48.780;9.158;2023-04-04T03:20:12;8.50;;;8.20;;
727;SDS011;347;48.780;9.158;2023-04-04T03:22:41;8.00;;;7.60;;
727;SDS011;347;48.780;9.158;2023-04-04T03:25:07;8.67;;;8.17;;
727;SDS011;347;48.780;9.158;2023-04-04T03:27:34;8.40;;;7.90;;
727;SDS011;347;48.780;9.158;2023-04-04T03:29:59;8.73;;;8.23;;
727;SDS011;347;48.780;9.158;2023-04-04T03:32:25;8.50;;;8.20;;
727;SDS011;347;48.780;9.158;2023-04-04T03:34:51;9.43;;;8.90;;
727;SDS011;347;48.780;9.158;2023-04-04T03:37:17;8.87;;;8.47;;
727;SDS011;347;48.780;9.158;2023-04-04T03:39:43;8.20;;;7.80;;
727;SDS011;347;48.780;9.158;2023-04-04T03:42:09;8.50;;;8.10;;
727;SDS011;347;48.780;9.158;2023-04-04T03:44:34;8.03;;;7.73;;
727;SDS011;347;48.780;9.158;2023-04-04T03:47:03;8.67;;;8.17;;
727;SDS011;347;48.780;9.158;2023-04-04T03:49:29;7.50;;;7.20;;
727;SDS011;347;48.780;9.158;2023-04-04T03:51:56;8.10;;;7.70;;
727;SDS011;347;48.780;9.158;2023-04-04T03:54:22;8.87;;;8.37;;
727;SDS011;347;48.780;9.158;2023-04-04T03:56:47;9.13;;;8.73;;
727;SDS011;347;48.780;9.158;2023-04-04T03:59:13;8.27;;;7.80;;
727;SDS011;347;48.780;9.158;2023-04-04T04:01:39;8.43;;;7.83;;
727;SDS011;347;48.780;9.158;2023-04-04T04:04:05;8.33;;;7.80;;
727;SDS011;347;48.780;9.158;2023-04-04T04:06:30;8.60;;;8.20;;
727;SDS011;347;48.780;9.158;2023-04-04T04:08:56;8.47;;;8.03;;
727;SDS011;347;48.780;9.158;2023-04-04T04:11:23;8.47;;;8.07;;
727;SDS011;347;48.780;9.158;2023-04-04T04:13:49;8.33;;;7.80;;
727;SDS011;347;48.780;9.158;2023-04-04T04:16:14;9.67;;;9.10;;
727;SDS011;347;48.780;9.158;2023-04-04T04:18:40;9.20;;;8.70;;
727;SDS011;347;48.780;9.158;2023-04-04T04:21:05;8.87;;;8.47;;
727;SDS011;347;48.780;9.158;2023-04-04T04:23:31;9.10;;;8.60;;
727;SDS011;347;48.780;9.158;2023-04-04T04:25:57;8.47;;;7.97;;
727;SDS011;347;48.780;9.158;2023-04-04T04:28:22;8.20;;;7.80;;
727;SDS011;347;48.780;9.158;2023-04-04T04:30:48;8.23;;;7.73;;
727;SDS011;347;48.780;9.158;2023-04-04T04:33:15;8.00;;;7.40;;
727;SDS011;347;48.780;9.158;2023-04-04T04:35:41;8.93;;;8.43;;
727;SDS011;347;48.780;9.158;2023-04-04T04:38:06;8.57;;;8.07;;
727;SDS011;347;48.780;9.158;2023-04-04T04:40:33;8.87;;;8.37;;
727;SDS011;347;48.780;9.158;2023-04-04T04:42:59;8.90;;;8.47;;
727;SDS011;347;48.780;9.158;2023-04-04T04:45:24;9.60;;;8.90;;
727;SDS011;347;48.780;9.158;2023-04-04T04:47:50;9.40;;;8.97;;
727;SDS011;347;48.780;9.158;2023-04-04T04:50:16;8.90;;;8.40;;
727;SDS011;347;48.780;9.158;2023-04-04T04:52:42;7.37;;;7.07;;
727;SDS011;347;48.780;9.158;2023-04-04T04:55:08;8.50;;;8.00;;
727;SDS011;347;48.780;9.158;2023-04-04T04:57:35;8.60;;;8.20;;
727;SDS011;347;48.780;9.158;2023-04-04T05:00:04;7.70;;;7.33;;
727;SDS011;347;48.780;9.158;2023-04-04T05:02:30;7.70;;;7.30;;
727;SDS011;347;48.780;9.158;2023-04-04T05:04:57;9.07;;;8.67;;
727;SDS011;347;48.780;9.158;2023-04-04T05:07:24;7.80;;;7.40;;
727;SDS011;347;48.780;9.158;2023-04-04T05:09:50;8.83;;;8.43;;
727;SDS011;347;48.780;9.158;2023-04-04T05:12:16;8.90;;;8.40;;
727;SDS011;347;48.780;9.158;2023-04-04T05:14:42;9.20;;;8.60;;
727;SDS011;347;48.780;9.158;2023-04-04T05:17:08;8.20;;;7.60;;
727;SDS011;347;48.780;9.158;2023-04-04T05:19:34;9.80;;;9.13;;
727;SDS011;347;48.780;9.158;2023-04-04T05:22:00;8.93;;;8.43;;
727;SDS011;347;48.780;9.158;2023-04-04T05:24:25;9.27;;;8.77;;
727;SDS011;347;48.780;9.158;2023-04-04T05:26:51;9.27;;;8.77;;
727;SDS011;347;48.780;9.158;2023-04-04T05:29:17;8.80;;;8.40;;
727;SDS011;347;48.780;9.158;2023-04-04T05:31:42;8.63;;;8.23;;
727;SDS011;347;48.780;9.158;2023-04-04T05:34:08;9.17;;;8.70;;
727;SDS011;347;48.780;9.158;2023-04-04T05:36:34;8.90;;;8.40;;
727;SDS011;347;48.780;9.158;2023-04-04T05:39:00;8.57;;;8.03;;
727;SDS011;347;48.780;9.158;2023-04-04T05:41:28;9.57;;;9.07;;
727;SDS011;347;48.780;9.158;2023-04-04T05:43:54;9.10;;;8.50;;
727;SDS011;347;48.780;9.158;2023-04-04T05:46:20;9.00;;;8.40;;
727;SDS011;347;48.780;9.158;2023-04-04T05:48:46;8.80;;;8.40;;
727;SDS011;347;48.780;9.158;2023-04-04T05:51:11;8.63;;;8.23;;
727;SDS011;347;48.780;9.158;2023-04-04T05:53:37;9.03;;;8.50;;
727;SDS011;347;48.780;9.158;2023-04-04T05:56:02;8.73;;;8.10;;
727;SDS011;347;48.780;9.158;2023-04-04T05:58:28;9.10;;;8.60;;
727;SDS011;347;48.780;9.158;2023-04-04T06:00:54;9.43;;;8.73;;
727;SDS011;347;48.780;9.158;2023-04-04T06:03:19;9.13;;;8.63;;
727;SDS011;347;48.780;9.158;2023-04-04T06:05:48;10.10;;;9.23;;
727;SDS011;347;48.780;9.158;2023-04-04T06:08:16;8.60;;;8.30;;
727;SDS011;347;48.780;9.158;2023-04-04T06:10:42;8.90;;;8.43;;
727;SDS011;347;48.780;9.158;2023-04-04T06:13:07;9.10;;;8.50;;
727;SDS011;347;48.780;9.158;2023-04-04T06:15:33;10.20;;;9.50;;
727;SDS011;347;48.780;9.158;2023-04-04T06:17:59;9.70;;;9.20;;
727;SDS011;347;48.780;9.158;2023-04-04T06:20:24;10.10;;;9.60;;
727;SDS011;347;48.780;9.158;2023-04-04T06:22:50;11.00;;;10.50;;
727;SDS011;347;48.780;9.158;2023-04-04T06:25:16;9.53;;;8.93;;
727;SDS011;347;48.780;9.158;2023-04-04T06:27:41;9.80;;;9.23;;
727;SDS011;347;48.780;9.158;2023-04-04T06:30:07;8.73;;;8.30;;
727;SDS011;347;48.780;9.158;2023-04-04T06:32:34;9.10;;;8.60;;
727;SDS011;347;48.780;9.158;2023-04-04T06:34:59;9.30;;;8.80;;
727;SDS011;347;48.780;9.158;2023-04-04T06:37:25;9.50;;;9.00;;
727;SDS011;347;48.780;9.158;2023-04-04T06:39:50;9.57;;;9.00;;
727;SDS011;347;48.780;9.158;2023-04-04T06:42:16;11.17;;;10.37;;
727;SDS011;347;48.780;9.158;2023-04-04T06:44:42;9.47;;;8.97;;
727;SDS011;347;48.780;9.158;2023-04-04T06:47:07;9.90;;;9.30;;
727;SDS011;347;48.780;9.158;2023-04-04T06:49:33;9.97;;;9.47;;
727;SDS011;347;48.780;9.158;2023-04-04T06:51:59;10.63;;;9.80;;
727;SDS011;347;48.780;9.158;2023-04-04T06:54:25;9.60;;;9.10;;
727;SDS011;347;48.780;9.158;2023-04-04T06:56:50;10.60;;;10.00;;
727;SDS011;347;48.780;9.158;2023-04-04T06:59:17;10.60;;;10.10;;
727;SDS011;347;48.780;9.158;2023-04-04T07:01:43;10.10;;;9.40;;
727;SDS011;347;48.780;9.158;2023-04-04T07:04:09;10.37;;;9.77;;
727;SDS011;347;48.780;9.158;2023-04-04T07:06:34;10.30;;;9.90;;
727;SDS011;347;48.780;9.158;2023-04-04T07:09:00;11.30;;;10.50;;
727;SDS011;347;48.780;9.158;2023-04-04T07:11:28;10.20;;;9.70;;
727;SDS011;347;48.780;9.158;2023-04-04T07:13:54;10.33;;;9.73;;
727;SDS011;347;48.780;9.158;2023-04-04T07:16:20;10.97;;;10.43;;
727;SDS011;347;48.780;9.158;2023-04-04T07:18:46;10.10;;;9.60;;
727;SDS011;347;48.780;9.158;2023-04-04T07:21:11;10.40;;;9.80;;
727;SDS011;347;48.780;9.158;2023-04-04T07:23:37;12.80;;;11.80;;
727;SDS011;347;48.780;9.158;2023-04-04T07:26:03;11.07;;;10.40;;
727;SDS011;347;48.780;9.158;2023-04-04T07:28:29;11.27;;;10.50;;
727;SDS011;347;48.780;9.158;2023-04-04T07:30:57;10.53;;;9.93;;
727;SDS011;347;48.780;9.158;2023-04-04T07:33:24;10.87;;;10.13;;
727;SDS011;347;48.780;9.158;2023-04-04T07:35:51;10.30;;;9.80;;
727;SDS011;347;48.780;9.158;2023-04-04T07:38:17;11.00;;;10.37;;
727;SDS011;347;48.780;9.158;2023-04-04T07:40:43;10.40;;;9.73;;
727;SDS011;347;48.780;9.158;2023-04-04T07:43:08;10.63;;;10.13;;
727;SDS011;347;48.780;9.158;2023-04-04T07:45:34;11.50;;;11.00;;
727;SDS011;347;48.780;9.158;2023-04-04T07:48:00;10.93;;;10.40;;
727;SDS011;347;48.780;9.158;2023-04-04T07:50:26;10.60;;;9.93;;
727;SDS011;347;48.780;9.158;2023-04-04T07:52:52;10.80;;;10.00;;
727;SDS011;347;48.780;9.158;2023-04-04T07:55:22;10.30;;;9.70;;
727;SDS011;347;48.780;9.158;2023-04-04T07:57:51;10.27;;;9.77;;
727;SDS011;347;48.780;9.158;2023-04-04T08:00:18;10.10;;;9.60;;
727;SDS011;347;48.780;9.158;2023-04-04T08:02:46;9.90;;;9.40;;
727;SDS011;347;48.780;9.158;2023-04-04T08:05:26;9.90;;;9.30;;
727;SDS011;347;48.780;9.158;2023-04-04T08:07:52;9.40;;;8.83;;
727;SDS011;347;48.780;9.158;2023-04-04T08:10:17;9.30;;;8.90;;
727;SDS011;347;48.780;9.158;2023-04-04T08:12:44;10.40;;;9.70;;
727;SDS011;347;48.780;9.158;2023-04-04T08:15:10;10.00;;;9.30;;
727;SDS011;347;48.780;9.158;2023-04-04T08:17:36;10.70;;;10.00;;
727;SDS011;347;48.780;9.158;2023-04-04T08:20:02;9.80;;;9.30;;
727;SDS011;347;48.780;9.158;2023-04-04T08:22:28;10.30;;;9.70;;
727;SDS011;347;48.780;9.158;2023-04-04T08:24:54;10.47;;;9.87;;
727;SDS011;347;48.780;9.158;2023-04-04T08:27:20;9.83;;;9.33;;
727;SDS011;347;48.780;9.158;2023-04-04T08:29:45;10.40;;;9.90;;
727;SDS011;347;48.780;9.158;2023-04-04T08:32:12;10.67;;;10.07;;
727;SDS011;347;48.780;9.158;2023-04-04T08:34:38;10.90;;;10.40;;
727;SDS011;347;48.780;9.158;2023-04-04T08:37:05;10.63;;;10.10;;
727;SDS011;347;48.780;9.158;2023-04-04T08:39:31;10.17;;;9.60;;
727;SDS011;347;48.780;9.158;2023-04-04T08:42:01;9.87;;;9.43;;
727;SDS011;347;48.780;9.158;2023-04-04T08:44:32;10.03;;;9.50;;
727;SDS011;347;48.780;9.158;2023-04-04T08:47:02;10.50;;;9.80;;
727;SDS011;347;48.780;9.158;2023-04-04T08:49:30;10.97;;;10.13;;
727;SDS011;347;48.780;9.158;2023-04-04T08:55:21;9.90;;;9.20;;
727;SDS011;347;48.780;9.158;2023-04-04T08:57:47;11.87;;;10.13;;
727;SDS011;347;48.780;9.158;2023-04-04T09:00:13;11.93;;;10.03;;
727;SDS011;347;48.780;9.158;2023-04-04T09:05:28;9.80;;;9.20;;
727;SDS011;347;48.780;9.158;2023-04-04T09:07:54;9.87;;;9.30;;
727;SDS011;347;48.780;9.158;2023-04-04T09:10:20;9.50;;;9.10;;
727;SDS011;347;48.780;9.158;2023-04-04T09:12:47;8.83;;;8.43;;
727;SDS011;347;48.780;9.158;2023-04-04T09:15:14;10.17;;;9.57;;
727;SDS011;347;48.780;9.158;2023-04-04T09:17:40;10.50;;;10.00;;
727;SDS011;347;48.780;9.158;2023-04-04T09:23:02;10.83;;;10.27;;
727;SDS011;347;48.780;9.158;2023-04-04T09:25:30;10.13;;;9.63;;
727;SDS011;347;48.780;9.158;2023-04-04T09:27:56;10.17;;;9.77;;
727;SDS011;347;48.780;9.158;2023-04-04T09:30:22;10.67;;;10.20;;
727;SDS011;347;48.780;9.158;2023-04-04T09:32:49;10.13;;;9.73;;
727;SDS011;347;48.780;9.158;2023-04-04T09:35:14;10.03;;;9.53;;
727;SDS011;347;48.780;9.158;2023-04-04T09:37:40;9.93;;;9.33;;
727;SDS011;347;48.780;9.158;2023-04-04T09:40:09;10.70;;;10.00;;
727;SDS011;347;48.780;9.158;2023-04-04T09:42:35;9.70;;;9.20;;
727;SDS011;347;48.780;9.158;2023-04-04T09:45:01;10.33;;;9.67;;
727;SDS011;347;48.780;9.158;2023-04-04T09:47:28;9.07;;;8.67;;
727;SDS011;347;48.780;9.158;2023-04-04T09:49:59;8.87;;;8.37;;
727;SDS011;347;48.780;9.158;2023-04-04T09:52:25;8.70;;;8.37;;
727;SDS011;347;48.780;9.158;2023-04-04T09:54:55;9.47;;;9.07;;
727;SDS011;347;48.780;9.158;2023-04-04T09:57:22;9.43;;;9.00;;
727;SDS011;347;48.780;9.158;2023-04-04T09:59:49;10.30;;;9.67;;
727;SDS011;347;48.780;9.158;2023-04-04T10:02:15;10.03;;;9.37;;
727;SDS011;347;48.780;9.158;2023-04-04T10:04:41;9.67;;;9.17;;
727;SDS011;347;48.780;9.158;2023-04-04T10:07:11;9.60;;;9.07;;
727;SDS011;347;48.780;9.158;2023-04-04T10:09:38;10.27;;;9.47;;
727;SDS011;347;48.780;9.158;2023-04-04T10:12:08;9.43;;;8.90;;
727;SDS011;347;48.780;9.158;2023-04-04T10:14:34;10.67;;;9.80;;
727;SDS011;347;48.780;9.158;2023-04-04T10:17:04;9.70;;;9.13;;
727;SDS011;347;48.780;9.158;2023-04-04T10:19:40;10.17;;;9.67;;
727;SDS011;347;48.780;9.158;2023-04-04T10:22:07;10.17;;;9.60;;
727;SDS011;347;48.780;9.158;2023-04-04T10:24:33;10.60;;;10.00;;
727;SDS011;347;48.780;9.158;2023-04-04T10:26:59;10.10;;;9.60;;
727;SDS011;347;48.780;9.158;2023-04-04T10:29:25;10.80;;;10.20;;
727;SDS011;347;48.780;9.158;2023-04-04T10:32:01;10.00;;;9.60;;
727;SDS011;347;48.780;9.158;2023-04-04T10:34:44;10.97;;;10.27;;
727;SDS011;347;48.780;9.158;2023-04-04T10:37:19;10.30;;;9.70;;
727;SDS011;347;48.780;9.158;2023-04-04T10:39:57;10.97;;;10.33;;
727;SDS011;347;48.780;9.158;2023-04-04T10:42:37;9.83;;;9.33;;
727;SDS011;347;48.780;9.158;2023-04-04T10:45:06;10.50;;;9.90;;
727;SDS011;347;48.780;9.158;2023-04-04T10:47:34;10.03;;;9.53;;
727;SDS011;347;48.780;9.158;2023-04-04T10:50:00;10.10;;;9.60;;
727;SDS011;347;48.780;9.158;2023-04-04T10:52:31;9.90;;;9.50;;
727;SDS011;347;48.780;9.158;2023-04-04T10:55:00;9.90;;;9.43;;
727;SDS011;347;48.780;9.158;2023-04-04T10:57:30;9.97;;;9.53;;
727;SDS011;347;48.780;9.158;2023-04-04T11:00:06;9.23;;;8.73;;
727;SDS011;347;48.780;9.158;2023-04-04T11:02:44;9.97;;;9.17;;
727;SDS011;347;48.780;9.158;2023-04-04T11:05:16;10.23;;;9.63;;
727;SDS011;347;48.780;9.158;2023-04-04T11:10:35;11.00;;;10.30;;
727;SDS011;347;48.780;9.158;2023-04-04T11:13:07;10.00;;;9.40;;
727;SDS011;347;48.780;9.158;2023-04-04T11:18:18;11.10;;;10.50;;
727;SDS011;347;48.780;9.158;2023-04-04T11:20:46;10.07;;;9.63;;
727;SDS011;347;48.780;9.158;2023-04-04T11:23:19;10.30;;;9.50;;
727;SDS011;347;48.780;9.158;2023-04-04T11:39:10;10.13;;;9.50;;
727;SDS011;347;48.780;9.158;2023-04-04T11:44:31;11.07;;;10.47;;
727;SDS011;347;48.780;9.158;2023-04-04T11:49:34;11.40;;;10.50;;
727;SDS011;347;48.780;9.158;2023-04-04T11:52:05;11.30;;;10.70;;
727;SDS011;347;48.780;9.158;2023-04-04T11:54:42;11.47;;;10.53;;
727;SDS011;347;48.780;9.158;2023-04-04T11:59:39;10.97;;;10.57;;
727;SDS011;347;48.780;9.158;2023-04-04T12:02:09;9.60;;;9.20;;
727;SDS011;347;48.780;9.158;2023-04-04T12:04:36;11.13;;;10.50;;
727;SDS011;347;48.780;9.158;2023-04-04T12:07:08;10.30;;;9.90;;
727;SDS011;347;48.780;9.158;2023-04-04T12:09:34;10.33;;;9.83;;
727;SDS011;347;48.780;9.158;2023-04-04T12:12:01;10.13;;;9.40;;
727;SDS011;347;48.780;9.158;2023-04-04T12:14:27;10.70;;;10.20;;
727;SDS011;347;48.780;9.158;2023-04-04T12:16:56;10.80;;;10.20;;
727;SDS011;347;48.780;9.158;2023-04-04T12:19:23;9.90;;;9.43;;
727;SDS011;347;48.780;9.158;2023-04-04T12:21:51;9.93;;;9.53;;
727;SDS011;347;48.780;9.158;2023-04-04T12:24:17;9.83;;;9.33;;
727;SDS011;347;48.780;9.158;2023-04-04T12:26:47;9.90;;;9.40;;
727;SDS011;347;48.780;9.158;2023-04-04T12:29:15;10.67;;;10.17;;
727;SDS011;347;48.780;9.158;2023-04-04T12:31:43;10.00;;;9.57;;
727;SDS011;347;48.780;9.158;2023-04-04T12:37:11;9.97;;;9.57;;
727;SDS011;347;48.780;9.158;2023-04-04T12:39:47;11.17;;;10.40;;
727;SDS011;347;48.780;9.158;2023-04-04T12:42:21;10.13;;;9.73;;
727;SDS011;347;48.780;9.158;2023-04-04T12:44:51;10.50;;;9.90;;
727;SDS011;347;48.780;9.158;2023-04-04T12:47:18;10.53;;;10.10;;
727;SDS011;347;48.780;9.158;2023-04-04T12:49:46;10.77;;;10.10;;
727;SDS011;347;48.780;9.158;2023-04-04T12:52:15;9.20;;;8.80;;
727;SDS011;347;48.780;9.158;2023-04-04T12:54:41;10.63;;;10.13;;
727;SDS011;347;48.780;9.158;2023-04-04T12:57:08;10.73;;;10.23;;
727;SDS011;347;48.780;9.158;2023-04-04T12:59:35;10.57;;;9.87;;
727;SDS011;347;48.780;9.158;2023-04-04T13:02:11;10.17;;;9.60;;
727;SDS011;347;48.780;9.158;2023-04-04T13:04:38;10.10;;;9.50;;
727;SDS011;347;48.780;9.158;2023-04-04T13:07:04;10.30;;;9.80;;
727;SDS011;347;48.780;9.158;2023-04-04T13:09:51;10.67;;;10.07;;
727;SDS011;347;48.780;9.158;2023-04-04T13:12:19;10.73;;;9.83;;
727;SDS011;347;48.780;9.158;2023-04-04T13:17:45;10.10;;;9.47;;
727;SDS011;347;48.780;9.158;2023-04-04T13:20:12;9.87;;;9.37;;
727;SDS011;347;48.780;9.158;2023-04-04T13:22:39;9.90;;;9.40;;
727;SDS011;347;48.780;9.158;2023-04-04T13:25:06;9.93;;;9.43;;
727;SDS011;347;48.780;9.158;2023-04-04T13:27:33;9.33;;;8.93;;
727;SDS011;347;48.780;9.158;2023-04-04T13:30:00;9.97;;;9.50;;
727;SDS011;347;48.780;9.158;2023-04-04T13:32:25;10.10;;;9.60;;
727;SDS011;347;48.780;9.158;2023-04-04T13:34:51;10.63;;;9.83;;
727;SDS011;347;48.780;9.158;2023-04-04T13:37:17;9.80;;;9.30;;
727;SDS011;347;48.780;9.158;2023-04-04T13:39:42;9.80;;;9.30;;
727;SDS011;347;48.780;9.158;2023-04-04T13:42:08;9.20;;;8.80;;
727;SDS011;347;48.780;9.158;2023-04-04T13:44:34;10.17;;;9.63;;
727;SDS011;347;48.780;9.158;2023-04-04T13:47:00;10.90;;;10.30;;
727;SDS011;347;48.780;9.158;2023-04-04T13:49:26;10.10;;;9.50;;
727;SDS011;347;48.780;9.158;2023-04-04T13:51:52;10.33;;;9.70;;
727;SDS011;347;48.780;9.158;2023-04-04T13:54:17;10.37;;;9.93;;
727;SDS011;347;48.780;9.158;2023-04-04T13:56:43;10.30;;;9.70;;
727;SDS011;347;48.780;9.158;2023-04-04T13:59:10;9.10;;;8.80;;
727;SDS011;347;48.780;9.158;2023-04-04T14:01:35;9.50;;;9.00;;
727;SDS011;347;48.780;9.158;2023-04-04T14:04:02;9.77;;;9.37;;
727;SDS011;347;48.780;9.158;2023-04-04T14:06:28;9.97;;;9.57;;
727;SDS011;347;48.780;9.158;2023-04-04T14:08:54;10.57;;;10.03;;
727;SDS011;347;48.780;9.158;2023-04-04T14:11:19;10.37;;;9.47;;
727;SDS011;347;48.780;9.158;2023-04-04T14:13:45;9.60;;;9.10;;
727;SDS011;347;48.780;9.158;2023-04-04T14:16:11;9.07;;;8.67;;
727;SDS011;347;48.780;9.158;2023-04-04T14:18:37;10.40;;;9.90;;
727;SDS011;347;48.780;9.158;2023-04-04T14:21:02;9.70;;;9.20;;
727;SDS011;347;48.780;9.158;2023-04-04T14:23:29;10.50;;;9.90;;
727;SDS011;347;48.780;9.158;2023-04-04T14:25:55;9.13;;;8.67;;
727;SDS011;347;48.780;9.158;2023-04-04T14:28:21;9.20;;;8.80;;
727;SDS011;347;48.780;9.158;2023-04-04T14:30:48;10.37;;;9.77;;
727;SDS011;347;48.780;9.158;2023-04-04T14:33:15;10.23;;;9.63;;
727;SDS011;347;48.780;9.158;2023-04-04T14:35:40;9.57;;;9.00;;
727;SDS011;347;48.780;9.158;2023-04-04T14:38:06;9.40;;;8.90;;
727;SDS011;347;48.780;9.158;2023-04-04T14:40:31;8.97;;;8.47;;
727;SDS011;347;48.780;9.158;2023-04-04T14:42:57;8.73;;;8.33;;
727;SDS011;347;48.780;9.158;2023-04-04T14:45:23;9.27;;;8.77;;
727;SDS011;347;48.780;9.158;2023-04-04T14:47:48;9.83;;;9.43;;
727;SDS011;347;48.780;9.158;2023-04-04T14:50:14;9.70;;;9.30;;
727;SDS011;347;48.780;9.158;2023-04-04T14:52:40;9.57;;;9.07;;
727;SDS011;347;48.780;9.158;2023-04-04T14:55:06;9.70;;;9.20;;
727;SDS011;347;48.780;9.158;2023-04-04T14:57:33;8.93;;;8.33;;
727;SDS011;347;48.780;9.158;2023-04-04T14:59:58;9.30;;;8.90;;
727;SDS011;347;48.780;9.158;2023-04-04T15:02:24;9.27;;;8.80;;
727;SDS011;347;48.780;9.158;2023-04-04T15:04:49;9.17;;;8.77;;
727;SDS011;347;48.780;9.158;2023-04-04T15:07:15;8.80;;;8.30;;
727;SDS011;347;48.780;9.158;2023-04-04T15:09:41;9.23;;;8.80;;
727;SDS011;347;48.780;9.158;2023-04-04T15:12:07;9.00;;;8.53;;
727;SDS011;347;48.780;9.158;2023-04-04T15:14:32;9.27;;;8.83;;
727;SDS011;347;48.780;9.158;2023-04-04T15:16:58;9.67;;;9.07;;
727;SDS011;347;48.780;9.158;2023-04-04T15:19:23;10.20;;;9.57;;
727;SDS011;347;48.780;9.158;2023-04-04T15:21:49;9.20;;;8.60;;
727;SDS011;347;48.780;9.158;2023-04-04T15:24:15;9.10;;;8.60;;
727;SDS011;347;48.780;9.158;2023-04-04T15:26:40;8.70;;;8.30;;
727;SDS011;347;48.780;9.158;2023-04-04T15:29:06;8.97;;;8.47;;
727;SDS011;347;48.780;9.158;2023-04-04T15:31:32;8.63;;;8.27;;
727;SDS011;347;48.780;9.158;2023-04-04T15:33:58;8.50;;;8.10;;
727;SDS011;347;48.780;9.158;2023-04-04T15:36:24;9.30;;;8.80;;
727;SDS011;347;48.780;9.158;2023-04-04T15:38:52;9.00;;;8.50;;
727;SDS011;347;48.780;9.158;2023-04-04T15:41:17;8.50;;;8.00;;
727;SDS011;347;48.780;9.158;2023-04-04T15:43:43;10.20;;;9.37;;
727;SDS011;347;48.780;9.158;2023-04-04T15:46:09;9.50;;;9.00;;
727;SDS011;347;48.780;9.158;2023-04-04T15:48:34;9.30;;;8.90;;
727;SDS011;347;48.780;9.158;2023-04-04T15:51:00;8.77;;;8.37;;
727;SDS011;347;48.780;9.158;2023-04-04T15:53:27;9.73;;;9.20;;
727;SDS011;347;48.780;9.158;2023-04-04T15:55:54;9.20;;;8.60;;
727;SDS011;347;48.780;9.158;2023-04-04T15:58:20;8.97;;;8.47;;
727;SDS011;347;48.780;9.158;2023-04-04T16:00:45;9.37;;;8.77;;
727;SDS011;347;48.780;9.158;2023-04-04T16:03:11;9.27;;;8.77;;
727;SDS011;347;48.780;9.158;2023-04-04T16:05:38;9.80;;;9.20;;
727;SDS011;347;48.780;9.158;2023-04-04T16:08:03;9.23;;;8.33;;
727;SDS011;347;48.780;9.158;2023-04-04T16:10:29;8.80;;;8.30;;
727;SDS011;347;48.780;9.158;2023-04-04T16:12:55;8.30;;;7.90;;
727;SDS011;347;48.780;9.158;2023-04-04T16:15:20;8.97;;;8.50;;
727;SDS011;347;48.780;9.158;2023-04-04T16:17:46;8.90;;;8.23;;
727;SDS011;347;48.780;9.158;2023-04-04T16:20:12;8.97;;;8.40;;
727;SDS011;347;48.780;9.158;2023-04-04T16:22:38;10.17;;;9.37;;